Terminal Aerodrome Forecast
Issued by NWS Knoxville/Tri Cities, TN

Home | Current Version | Previous Version | Text Only | Print | Product List | Glossary On
Versions: 1 2 3 4 5 6 7 8 9 10 11 12 13 14 15 16 17 18
000
FTUS44 KMRX 240301 AAA
TAFTRI
TAF AMD
KTRI 240301Z 2403/2424 22008KT P6SM FEW040
     FM240700 23004KT 5SM BR SCT010
     FM241400 23010G20KT P6SM SCT025 OVC070
     FM241800 25015G24KT P6SM OVC070
     FM242200 25014G21KT P6SM BKN250=

USA.gov is the U.S. government's official web portal to all federal, state and local government web resources and services.